This is the latest recevied weather packets stored in our database for station/object OK1FRN-6. If no packets are shown the sender has not sent any weather packets the latest 1 day(s).
| Time | Temp. | Humidity | Pressure | Rain* | Wind** | Luminosity | Snow |
|---|---|---|---|---|---|---|---|
| 1778068505 | 23.89° C | 41% | 1007.4 hPa | - | - | - | - |
| 1778067584 | 23.33° C | 41% | 1007.4 hPa | - | - | - | - |
| 1778067277 | 23.89° C | 40% | 1007.5 hPa | - | - | - | - |
| 1778066970 | 23.89° C | 41% | 1007.6 hPa | - | - | - | - |
| 1778066663 | 23.89° C | 41% | 1007.5 hPa | - | - | - | - |
| 1778062058 | 21.67° C | 50% | 1008 hPa | - | - | - | - |
| 1778061138 | 21.11° C | 50% | 1008.1 hPa | - | - | - | - |
| 1778060831 | 21.11° C | 52% | 1008.1 hPa | - | - | - | - |
| 1778059911 | 20.56° C | 53% | 1008.1 hPa | - | - | - | - |
| 1778058684 | 20.56° C | 55% | 1008.2 hPa | - | - | - | - |
| 1778058377 | 20.56° C | 54% | 1008.3 hPa | - | - | - | - |
| 1778057764 | 20° C | 57% | 1008.2 hPa | - | - | - | - |
| 1778057151 | 20° C | 58% | 1008.3 hPa | - | - | - | - |
| 1778056844 | 19.44° C | 60% | 1008.3 hPa | - | - | - | - |
| 1778055924 | 18.89° C | 61% | 1008.3 hPa | - | - | - | - |
| 1778055618 | 18.89° C | 62% | 1008.2 hPa | - | - | - | - |
| 1778055311 | 18.33° C | 65% | 1008.2 hPa | - | - | - | - |
| 1778055005 | 18.33° C | 65% | 1008.2 hPa | - | - | - | - |
| 1778054698 | 17.78° C | 67% | 1008.2 hPa | - | - | - | - |
| 1778054392 | 17.78° C | 69% | 1008.3 hPa | - | - | - | - |
| 1778053779 | 17.22° C | 72% | 1008.2 hPa | - | - | - | - |
| 1778052860 | 16.67° C | 74% | 1008.3 hPa | - | - | - | - |
| 1778052247 | 16.67° C | 75% | 1008.2 hPa | - | - | - | - |
| 1778051328 | 16.67° C | 75% | 1008.4 hPa | - | - | - | - |
| 1778051022 | 16.67° C | 78% | 1008.3 hPa | - | - | - | - |
* Rain since midnight (hover to see other rain measurements)
** Current wind speed in m/s (hover to see current wind gust speed)